createdAt,value
2023-05-09T00:02:17.130Z,3.08
2023-05-09T00:04:44.733Z,2.78
2023-05-09T00:07:12.725Z,2.70
2023-05-09T00:09:41.612Z,2.63
2023-05-09T00:12:09.818Z,2.50
2023-05-09T00:14:39.120Z,2.70
2023-05-09T00:17:06.661Z,2.80
2023-05-09T00:19:34.244Z,2.67
2023-05-09T00:22:01.822Z,2.75
2023-05-09T00:24:29.323Z,3.40
2023-05-09T00:26:58.172Z,2.95
2023-05-09T00:29:25.729Z,2.90
2023-05-09T00:31:53.277Z,2.90
2023-05-09T00:34:20.941Z,2.85
2023-05-09T00:36:49.792Z,2.83
2023-05-09T00:39:17.319Z,3.00
2023-05-09T00:41:44.912Z,2.60
2023-05-09T00:44:13.850Z,2.70
2023-05-09T00:46:41.547Z,2.95
2023-05-09T00:49:09.111Z,2.70
2023-05-09T00:51:37.815Z,2.90
2023-05-09T00:54:07.623Z,3.00
2023-05-09T00:56:36.680Z,2.83
2023-05-09T00:59:04.509Z,3.03
2023-05-09T01:01:33.508Z,3.17
2023-05-09T01:04:01.178Z,3.05
2023-05-09T01:06:39.515Z,3.13
2023-05-09T01:09:16.877Z,2.90
2023-05-09T01:11:50.021Z,2.92
2023-05-09T01:14:27.485Z,3.30
2023-05-09T01:17:02.907Z,3.17
2023-05-09T01:20:05.838Z,3.35
2023-05-09T01:22:37.295Z,3.05
2023-05-09T01:25:21.673Z,3.00
2023-05-09T01:27:54.654Z,3.03
2023-05-09T01:30:26.068Z,3.13
2023-05-09T01:32:58.861Z,3.10
2023-05-09T01:35:31.026Z,3.20
2023-05-09T01:38:00.209Z,3.20
2023-05-09T01:40:33.613Z,3.20
2023-05-09T01:43:06.919Z,3.38
2023-05-09T01:45:36.810Z,3.38
2023-05-09T01:48:06.189Z,3.75
2023-05-09T01:50:36.795Z,3.38
2023-05-09T01:53:07.391Z,3.37
2023-05-09T01:55:36.959Z,3.13
2023-05-09T01:58:05.335Z,3.30
2023-05-09T02:00:36.267Z,3.10
2023-05-09T02:03:05.266Z,3.40
2023-05-09T02:05:34.423Z,3.60
2023-05-09T02:08:02.473Z,3.63
2023-05-09T02:10:34.037Z,3.75
2023-05-09T02:13:01.788Z,3.35
2023-05-09T02:15:30.489Z,3.75
2023-05-09T02:17:59.404Z,3.53
2023-05-09T02:20:26.996Z,3.25
2023-05-09T02:22:54.612Z,3.92
2023-05-09T02:25:23.225Z,3.75
2023-05-09T02:27:52.952Z,3.50
2023-05-09T02:30:25.102Z,3.73
2023-05-09T02:32:58.583Z,3.42
2023-05-09T02:35:28.813Z,3.60
2023-05-09T02:37:58.319Z,3.35
2023-05-09T02:40:27.783Z,3.75
2023-05-09T02:42:55.410Z,3.40
2023-05-09T02:45:22.960Z,3.60
2023-05-09T02:47:50.576Z,3.97
2023-05-09T02:50:18.321Z,3.78
2023-05-09T02:52:47.389Z,3.88
2023-05-09T02:55:15.323Z,4.00
2023-05-09T02:57:43.960Z,4.03
2023-05-09T03:00:12.596Z,4.25
2023-05-09T03:02:40.470Z,4.07
2023-05-09T03:05:15.393Z,4.22
2023-05-09T03:07:43.129Z,4.43
2023-05-09T03:10:12.318Z,4.30
2023-05-09T03:12:40.061Z,4.30
2023-05-09T03:15:08.993Z,4.30
2023-05-09T03:17:38.318Z,4.13
2023-05-09T03:20:09.721Z,4.20
2023-05-09T03:22:37.330Z,4.20
2023-05-09T03:25:08.129Z,4.35
2023-05-09T03:27:37.388Z,4.22
2023-05-09T03:30:08.767Z,4.30
2023-05-09T03:32:36.773Z,4.10
2023-05-09T03:35:05.031Z,4.53
2023-05-09T03:37:33.602Z,4.60
2023-05-09T03:40:01.145Z,4.60
2023-05-09T03:42:32.285Z,4.70
2023-05-09T03:45:03.823Z,4.70
2023-05-09T03:47:31.502Z,4.47
2023-05-09T03:49:59.061Z,4.38
2023-05-09T03:52:26.799Z,4.53
2023-05-09T03:54:54.411Z,4.75
2023-05-09T03:57:21.996Z,4.50
2023-05-09T03:59:51.631Z,4.20
2023-05-09T04:02:20.950Z,4.68
2023-05-09T04:04:49.861Z,4.43
2023-05-09T04:07:20.702Z,4.50
2023-05-09T04:09:49.379Z,4.50
2023-05-09T04:12:17.264Z,4.97
2023-05-09T04:14:48.115Z,4.57
2023-05-09T04:17:17.489Z,4.97
2023-05-09T04:19:47.279Z,4.50
2023-05-09T04:22:15.189Z,4.80
2023-05-09T04:24:42.907Z,4.80
2023-05-09T04:27:10.597Z,4.80
2023-05-09T04:29:38.948Z,4.50
2023-05-09T04:32:06.744Z,4.80
2023-05-09T04:34:35.175Z,4.50
2023-05-09T04:37:09.950Z,5.20
2023-05-09T04:39:37.883Z,5.20
2023-05-09T04:42:14.288Z,5.50
2023-05-09T04:44:41.844Z,5.43
2023-05-09T04:47:09.525Z,6.90
2023-05-09T04:49:37.041Z,4.70
2023-05-09T04:52:04.956Z,5.03
2023-05-09T04:54:33.886Z,4.85
2023-05-09T04:57:13.790Z,4.90
2023-05-09T04:59:46.796Z,5.10
2023-05-09T05:02:15.768Z,4.88
2023-05-09T05:04:43.975Z,5.05
2023-05-09T05:07:11.795Z,5.07
2023-05-09T05:09:41.202Z,4.95
2023-05-09T05:12:09.786Z,4.90
2023-05-09T05:14:38.633Z,5.50
2023-05-09T05:17:08.729Z,5.05
2023-05-09T05:19:36.725Z,4.90
2023-05-09T05:22:06.351Z,5.05
2023-05-09T05:24:36.067Z,5.07
2023-05-09T05:27:05.179Z,5.15
2023-05-09T05:29:32.699Z,5.50
2023-05-09T05:32:00.488Z,5.95
2023-05-09T05:34:28.081Z,5.20
2023-05-09T05:36:57.400Z,5.30
2023-05-09T05:39:25.221Z,4.97
2023-05-09T05:41:53.627Z,5.30
2023-05-09T05:44:22.962Z,5.10
2023-05-09T05:46:50.704Z,5.40
2023-05-09T05:49:19.150Z,5.73
2023-05-09T05:51:46.742Z,5.78
2023-05-09T05:54:14.766Z,5.35
2023-05-09T05:56:42.836Z,5.32
2023-05-09T05:59:13.232Z,4.93
2023-05-09T06:01:42.528Z,5.00
2023-05-09T06:04:10.215Z,5.60
2023-05-09T06:06:38.118Z,5.60
2023-05-09T06:09:05.739Z,5.38
2023-05-09T06:11:33.294Z,5.13
2023-05-09T06:14:02.113Z,5.13
2023-05-09T06:16:30.021Z,5.40
2023-05-09T06:18:58.986Z,4.90
2023-05-09T06:21:27.187Z,5.18
2023-05-09T06:24:05.115Z,5.38
2023-05-09T06:26:35.937Z,5.00
2023-05-09T06:29:03.598Z,4.57
2023-05-09T06:31:31.113Z,5.13
2023-05-09T06:33:59.998Z,5.43
2023-05-09T06:36:27.639Z,5.88
2023-05-09T06:38:55.432Z,4.90
2023-05-09T06:41:23.200Z,5.13
2023-05-09T06:43:51.267Z,5.50
2023-05-09T06:46:19.070Z,5.00
2023-05-09T06:48:46.770Z,5.00
2023-05-09T06:51:16.356Z,4.97
2023-05-09T06:53:43.983Z,4.70
2023-05-09T06:56:12.033Z,5.18
2023-05-09T06:58:39.824Z,5.30
2023-05-09T07:01:07.566Z,4.93
2023-05-09T07:03:35.277Z,4.93
2023-05-09T07:06:02.845Z,5.93
2023-05-09T07:08:31.820Z,4.70
2023-05-09T07:10:59.500Z,4.88
2023-05-09T07:13:27.171Z,4.70
2023-05-09T07:15:54.793Z,4.80
2023-05-09T07:18:22.494Z,5.32
2023-05-09T07:20:50.067Z,4.97
2023-05-09T07:23:17.771Z,4.43
2023-05-09T07:25:46.623Z,4.70
2023-05-09T07:28:14.186Z,4.40
2023-05-09T07:30:43.640Z,4.30
2023-05-09T07:33:11.342Z,4.60
2023-05-09T07:35:38.960Z,4.90
2023-05-09T07:38:07.220Z,4.43
2023-05-09T07:40:36.416Z,4.73
2023-05-09T07:43:05.596Z,4.53
2023-05-09T07:45:33.402Z,4.90
2023-05-09T07:48:01.226Z,4.60
2023-05-09T07:50:29.022Z,4.82
2023-05-09T07:52:56.693Z,4.67
2023-05-09T07:55:24.298Z,4.80
2023-05-09T07:57:51.929Z,4.80
2023-05-09T08:00:23.770Z,4.55
2023-05-09T08:02:51.860Z,4.60
2023-05-09T08:05:20.008Z,4.53
2023-05-09T08:07:47.777Z,4.55
2023-05-09T08:10:16.581Z,4.38
2023-05-09T08:12:44.284Z,4.28
2023-05-09T08:15:12.763Z,4.10
2023-05-09T08:17:42.043Z,4.20
2023-05-09T08:20:11.111Z,3.88
2023-05-09T08:22:39.899Z,4.05
2023-05-09T08:25:08.466Z,4.40
2023-05-09T08:27:36.163Z,4.10
2023-05-09T08:30:03.793Z,4.30
2023-05-09T08:32:31.471Z,4.05
2023-05-09T08:35:00.584Z,3.80
2023-05-09T08:37:28.930Z,4.15
2023-05-09T08:39:56.574Z,3.95
2023-05-09T08:42:26.658Z,4.20
2023-05-09T08:44:54.453Z,4.20
2023-05-09T08:47:23.766Z,4.10
2023-05-09T08:49:52.410Z,3.58
2023-05-09T08:52:22.032Z,4.13
2023-05-09T08:54:49.721Z,3.67
2023-05-09T08:57:17.344Z,3.60
2023-05-09T08:59:46.407Z,3.88
2023-05-09T09:02:15.935Z,3.53
2023-05-09T09:04:44.985Z,3.63
2023-05-09T09:07:14.806Z,3.87
2023-05-09T09:09:47.897Z,3.42
2023-05-09T09:12:17.597Z,3.70
2023-05-09T09:14:50.933Z,3.75
2023-05-09T09:17:20.926Z,3.88
2023-05-09T09:19:50.690Z,3.77
2023-05-09T09:22:20.305Z,4.07
2023-05-09T09:24:49.294Z,3.47
2023-05-09T09:27:16.910Z,3.45
2023-05-09T09:29:44.838Z,3.70
2023-05-09T09:32:12.536Z,3.50
2023-05-09T09:34:40.309Z,3.55
2023-05-09T09:37:08.246Z,3.40
2023-05-09T09:39:35.951Z,3.97
2023-05-09T09:42:14.326Z,3.47
2023-05-09T09:44:41.958Z,3.87
2023-05-09T09:47:11.556Z,3.88
2023-05-09T09:49:46.174Z,3.55
2023-05-09T09:52:24.653Z,3.78
2023-05-09T09:54:52.252Z,3.65
2023-05-09T10:00:15.946Z,3.40
2023-05-09T10:02:51.637Z,3.67
2023-05-09T10:05:23.846Z,4.32
2023-05-09T10:07:54.768Z,3.65
2023-05-09T10:10:22.487Z,3.30
2023-05-09T10:12:52.179Z,3.67
2023-05-09T10:15:21.907Z,3.10
2023-05-09T10:17:53.538Z,3.35
2023-05-09T10:20:21.526Z,3.70
2023-05-09T10:22:49.961Z,3.70
2023-05-09T10:25:21.467Z,3.60
2023-05-09T10:27:50.160Z,3.97
2023-05-09T10:30:20.011Z,3.83
2023-05-09T10:32:54.002Z,3.60
2023-05-09T10:35:27.086Z,3.78
2023-05-09T10:37:57.253Z,3.73
2023-05-09T10:40:25.495Z,3.60
2023-05-09T10:42:53.043Z,3.15
2023-05-09T10:45:22.123Z,3.42
2023-05-09T10:47:53.611Z,3.50
2023-05-09T10:50:22.402Z,3.30
2023-05-09T10:53:14.239Z,3.42
2023-05-09T10:55:50.709Z,3.05
2023-05-09T10:58:23.635Z,3.47
2023-05-09T11:00:52.347Z,3.10
2023-05-09T11:03:21.702Z,3.03
2023-05-09T11:05:52.370Z,3.10
2023-05-09T11:08:22.163Z,3.15
2023-05-09T11:10:50.245Z,3.10
2023-05-09T11:13:20.274Z,2.83
2023-05-09T11:16:09.332Z,3.10
2023-05-09T11:18:52.596Z,2.90
2023-05-09T11:21:21.660Z,3.20
2023-05-09T11:23:51.893Z,3.03
2023-05-09T11:26:23.577Z,2.65
2023-05-09T11:28:57.698Z,3.10
2023-05-09T11:31:25.293Z,3.08
2023-05-09T11:34:04.720Z,3.10
2023-05-09T11:36:33.609Z,2.85
2023-05-09T11:39:03.908Z,2.90
2023-05-09T11:41:32.220Z,2.80
2023-05-09T11:44:01.091Z,3.10
2023-05-09T11:46:28.765Z,2.70
2023-05-09T11:48:58.067Z,4.13
2023-05-09T11:51:26.767Z,3.05
2023-05-09T11:53:54.337Z,2.70
2023-05-09T11:56:23.845Z,3.00
2023-05-09T11:58:53.076Z,2.70
2023-05-09T12:01:20.758Z,3.05
2023-05-09T12:03:49.317Z,3.15
2023-05-09T12:06:19.795Z,3.00
2023-05-09T12:08:47.963Z,2.80
2023-05-09T12:11:16.109Z,2.88
2023-05-09T12:13:48.291Z,2.90
2023-05-09T12:16:16.989Z,2.60
2023-05-09T12:18:48.621Z,2.77
2023-05-09T12:21:18.201Z,2.88
2023-05-09T12:23:48.933Z,2.83
2023-05-09T12:26:18.373Z,2.97
2023-05-09T12:28:46.366Z,2.97
2023-05-09T12:31:14.140Z,2.83
2023-05-09T12:33:42.018Z,2.85
2023-05-09T12:36:11.417Z,3.03
2023-05-09T12:38:40.830Z,3.25
2023-05-09T12:41:21.947Z,7.25
2023-05-09T12:43:57.164Z,6.87
2023-05-09T12:46:24.996Z,5.00
2023-05-09T12:48:52.691Z,4.50
2023-05-09T12:51:21.576Z,3.88
2023-05-09T12:53:50.758Z,3.85
2023-05-09T12:56:20.372Z,3.40
2023-05-09T12:58:52.175Z,3.50
2023-05-09T13:01:20.635Z,3.47
2023-05-09T13:03:52.583Z,3.40
2023-05-09T13:06:21.080Z,3.33
2023-05-09T13:09:00.432Z,3.20
2023-05-09T13:11:28.483Z,3.40
2023-05-09T13:13:56.199Z,3.15
2023-05-09T13:16:23.847Z,3.33
2023-05-09T13:18:51.416Z,3.22
2023-05-09T13:21:19.299Z,3.00
2023-05-09T13:23:46.860Z,3.63
2023-05-09T13:26:15.768Z,3.30
2023-05-09T13:28:43.280Z,3.15
2023-05-09T13:31:10.955Z,3.40
2023-05-09T13:33:38.655Z,3.20
2023-05-09T13:36:06.986Z,3.13
2023-05-09T13:38:38.474Z,3.20
2023-05-09T13:41:06.116Z,2.90
2023-05-09T13:43:35.176Z,3.00
2023-05-09T13:46:02.994Z,3.20
2023-05-09T13:48:30.577Z,2.90
2023-05-09T13:50:59.809Z,3.03
2023-05-09T13:53:27.472Z,2.92
2023-05-09T13:55:55.040Z,2.85
2023-05-09T13:58:22.569Z,3.37
2023-05-09T14:00:51.419Z,3.20
2023-05-09T14:03:19.081Z,3.10
2023-05-09T14:05:48.051Z,3.25
2023-05-09T14:08:15.720Z,3.08
2023-05-09T14:10:44.438Z,3.37
2023-05-09T14:13:12.440Z,3.10
2023-05-09T14:15:40.604Z,2.90
2023-05-09T14:18:09.676Z,2.78
2023-05-09T14:20:40.221Z,2.90
2023-05-09T14:23:07.710Z,2.80
2023-05-09T14:25:35.260Z,2.83
2023-05-09T14:28:03.154Z,3.25
2023-05-09T14:30:30.806Z,2.85
2023-05-09T14:32:58.326Z,2.90
2023-05-09T14:35:27.466Z,3.00
2023-05-09T14:37:55.061Z,2.78
2023-05-09T14:40:22.655Z,2.90
2023-05-09T14:42:50.158Z,3.05
2023-05-09T14:45:17.910Z,2.88
2023-05-09T14:47:45.668Z,3.03
2023-05-09T14:50:15.802Z,3.00
2023-05-09T14:52:45.089Z,3.00
2023-05-09T14:55:12.833Z,3.15
2023-05-09T14:57:40.599Z,2.90
2023-05-09T15:00:20.520Z,3.00
2023-05-09T15:02:49.813Z,3.40
2023-05-09T15:05:18.024Z,2.90
2023-05-09T15:07:47.312Z,3.25
2023-05-09T15:10:15.554Z,3.13
2023-05-09T15:12:43.833Z,3.10
2023-05-09T15:15:15.459Z,2.80
2023-05-09T15:17:43.676Z,2.80
2023-05-09T15:20:12.658Z,2.90
2023-05-09T15:22:40.200Z,3.10
2023-05-09T15:25:10.177Z,2.90
2023-05-09T15:27:38.319Z,2.70
2023-05-09T15:30:07.268Z,2.50
2023-05-09T15:32:35.898Z,2.40
2023-05-09T15:35:03.489Z,2.90
2023-05-09T15:37:30.989Z,2.60
2023-05-09T15:39:58.852Z,3.20
2023-05-09T15:42:28.078Z,3.30
2023-05-09T15:44:55.710Z,3.47
2023-05-09T15:47:23.275Z,2.80
2023-05-09T15:49:50.850Z,2.80
2023-05-09T15:52:18.455Z,2.50
2023-05-09T15:54:46.150Z,2.58
2023-05-09T15:57:13.775Z,2.80
2023-05-09T15:59:42.640Z,2.75
2023-05-09T16:02:10.778Z,2.50
2023-05-09T16:04:38.557Z,2.90
2023-05-09T16:07:06.109Z,2.50
2023-05-09T16:09:34.039Z,2.70
2023-05-09T16:12:01.666Z,2.72
2023-05-09T16:14:29.256Z,3.20
2023-05-09T16:16:58.142Z,2.97
2023-05-09T16:19:25.648Z,3.03
2023-05-09T16:21:53.163Z,2.88
2023-05-09T16:24:20.659Z,2.40
2023-05-09T16:26:48.216Z,2.50
2023-05-09T16:29:15.853Z,2.35
2023-05-09T16:31:44.789Z,2.28
2023-05-09T16:34:13.725Z,2.50
2023-05-09T16:36:41.322Z,2.60
2023-05-09T16:39:09.053Z,4.07
2023-05-09T16:41:36.609Z,2.58
2023-05-09T16:44:04.266Z,2.42
2023-05-09T16:46:31.851Z,2.50
2023-05-09T16:48:59.434Z,2.40
2023-05-09T16:51:28.266Z,2.37
2023-05-09T16:53:55.809Z,2.10
2023-05-09T16:56:23.796Z,2.10
2023-05-09T16:58:51.615Z,2.75
2023-05-09T17:01:19.213Z,2.72
2023-05-09T17:03:47.970Z,2.17
2023-05-09T17:06:15.534Z,2.10
2023-05-09T17:08:44.511Z,2.60
2023-05-09T17:11:12.216Z,2.10
2023-05-09T17:13:39.922Z,2.35
2023-05-09T17:16:07.712Z,2.40
2023-05-09T17:18:38.104Z,3.00
2023-05-09T17:21:06.635Z,2.50
2023-05-09T17:23:34.162Z,2.40
2023-05-09T17:26:03.758Z,2.35
2023-05-09T17:28:31.329Z,2.00
2023-05-09T17:30:59.405Z,2.40
2023-05-09T17:33:27.073Z,2.25
2023-05-09T17:35:54.736Z,2.30
2023-05-09T17:38:22.320Z,2.40
2023-05-09T17:40:49.975Z,2.30
2023-05-09T17:43:18.838Z,2.20
2023-05-09T17:45:47.039Z,2.13
2023-05-09T17:48:14.614Z,2.10
2023-05-09T17:50:43.441Z,2.20
2023-05-09T17:53:11.041Z,2.17
2023-05-09T17:55:38.698Z,2.10
2023-05-09T17:58:07.995Z,2.10
2023-05-09T18:00:36.853Z,2.30
2023-05-09T18:03:05.157Z,2.17
2023-05-09T18:05:33.044Z,2.17
2023-05-09T18:08:01.207Z,2.20
2023-05-09T18:10:29.273Z,2.15
2023-05-09T18:12:57.040Z,2.67
2023-05-09T18:15:25.427Z,2.10
2023-05-09T18:17:54.726Z,2.00
2023-05-09T18:20:22.432Z,2.75
2023-05-09T18:22:49.931Z,2.20
2023-05-09T18:25:18.358Z,2.20
2023-05-09T18:27:45.919Z,2.33
2023-05-09T18:30:14.604Z,2.10
2023-05-09T18:32:42.674Z,2.30
2023-05-09T18:35:11.643Z,2.30
2023-05-09T18:37:39.385Z,2.30
2023-05-09T18:40:10.618Z,2.03
2023-05-09T18:42:38.309Z,2.30
2023-05-09T18:45:07.073Z,2.22
2023-05-09T18:47:34.701Z,2.50
2023-05-09T18:50:03.963Z,2.10
2023-05-09T18:52:34.128Z,2.67
2023-05-09T18:55:01.700Z,2.43
2023-05-09T18:57:29.240Z,2.45
2023-05-09T18:59:56.824Z,2.20
2023-05-09T19:02:24.413Z,2.40
2023-05-09T19:04:52.372Z,2.30
2023-05-09T19:07:19.996Z,2.40
2023-05-09T19:09:49.317Z,2.38
2023-05-09T19:12:17.563Z,2.38
2023-05-09T19:14:45.123Z,2.83
2023-05-09T19:17:12.658Z,2.83
2023-05-09T19:19:40.219Z,2.60
2023-05-09T19:22:08.012Z,3.00
2023-05-09T19:24:35.596Z,2.92
2023-05-09T19:27:05.072Z,2.55
2023-05-09T19:29:32.650Z,2.67
2023-05-09T19:32:01.169Z,2.50
2023-05-09T19:34:30.305Z,2.58
2023-05-09T19:36:57.805Z,2.60
2023-05-09T19:39:25.459Z,2.75
2023-05-09T19:41:53.188Z,2.45
2023-05-09T19:44:22.279Z,2.40
2023-05-09T19:46:49.883Z,2.60
2023-05-09T19:49:18.152Z,2.47
2023-05-09T19:51:45.925Z,2.30
2023-05-09T19:54:14.150Z,2.70
2023-05-09T19:56:41.882Z,2.40
2023-05-09T19:59:09.435Z,2.50
2023-05-09T20:01:38.541Z,2.60
2023-05-09T20:04:07.346Z,2.45
2023-05-09T20:06:35.396Z,2.50
2023-05-09T20:09:03.084Z,2.20
2023-05-09T20:11:30.659Z,2.42
2023-05-09T20:13:58.604Z,2.50
2023-05-09T20:16:26.464Z,2.47
2023-05-09T20:18:55.575Z,2.50
2023-05-09T20:21:23.162Z,2.40
2023-05-09T20:23:50.712Z,2.53
2023-05-09T20:26:18.260Z,3.78
2023-05-09T20:28:45.801Z,2.65
2023-05-09T20:31:13.382Z,2.63
2023-05-09T20:33:41.097Z,2.60
2023-05-09T20:36:11.061Z,2.60
2023-05-09T20:38:38.587Z,3.00
2023-05-09T20:41:06.450Z,2.70
2023-05-09T20:43:34.029Z,2.67
2023-05-09T20:46:01.625Z,2.50
2023-05-09T20:48:29.333Z,2.83
2023-05-09T20:50:56.893Z,2.53
2023-05-09T20:53:27.385Z,2.80
2023-05-09T20:55:54.945Z,2.58
2023-05-09T20:58:22.474Z,2.73
2023-05-09T21:00:50.059Z,2.72
2023-05-09T21:03:17.940Z,2.63
2023-05-09T21:05:45.680Z,2.70
2023-05-09T21:08:13.441Z,2.90
2023-05-09T21:10:42.323Z,2.97
2023-05-09T21:13:09.861Z,2.67
2023-05-09T21:15:37.460Z,2.60
2023-05-09T21:18:05.719Z,3.20
2023-05-09T21:20:33.253Z,2.65
2023-05-09T21:23:00.811Z,2.80
2023-05-09T21:25:28.369Z,2.63
2023-05-09T21:27:57.264Z,2.78
2023-05-09T21:30:24.965Z,2.75
2023-05-09T21:32:52.610Z,2.80
2023-05-09T21:35:20.241Z,2.93
2023-05-09T21:37:48.453Z,3.00
2023-05-09T21:40:16.134Z,2.95
2023-05-09T21:42:44.235Z,2.88
2023-05-09T21:45:13.184Z,2.95
2023-05-09T21:47:40.827Z,3.20
2023-05-09T21:50:09.138Z,3.10
2023-05-09T21:52:36.854Z,3.17
2023-05-09T21:55:04.817Z,3.42
2023-05-09T21:57:32.364Z,3.03
2023-05-09T22:00:01.299Z,3.40
2023-05-09T22:02:30.418Z,3.20
2023-05-09T22:04:58.115Z,2.92
2023-05-09T22:07:25.636Z,3.22
2023-05-09T22:09:54.037Z,3.10
2023-05-09T22:12:21.578Z,3.07
2023-05-09T22:14:56.304Z,3.30
2023-05-09T22:17:24.134Z,3.28
2023-05-09T22:19:53.251Z,3.40
2023-05-09T22:22:21.166Z,3.20
2023-05-09T22:24:49.618Z,3.50
2023-05-09T22:27:17.188Z,3.45
2023-05-09T22:29:45.569Z,3.20
2023-05-09T22:32:13.225Z,3.33
2023-05-09T22:34:41.889Z,3.20
2023-05-09T22:37:10.791Z,3.20
2023-05-09T22:39:38.686Z,3.53
2023-05-09T22:42:09.273Z,3.60
2023-05-09T22:44:36.828Z,3.70
2023-05-09T22:47:04.399Z,3.65
2023-05-09T22:49:31.955Z,3.50
2023-05-09T22:51:59.453Z,3.47
2023-05-09T22:54:28.450Z,3.45
2023-05-09T22:56:55.989Z,3.58
2023-05-09T22:59:23.596Z,3.63
2023-05-09T23:01:52.668Z,3.93
2023-05-09T23:04:20.521Z,3.50
2023-05-09T23:06:48.141Z,3.50
2023-05-09T23:09:15.651Z,3.55
2023-05-09T23:11:44.531Z,3.42
2023-05-09T23:14:12.232Z,3.40
2023-05-09T23:16:39.808Z,3.80
2023-05-09T23:19:07.368Z,3.65
2023-05-09T23:21:34.932Z,3.63
2023-05-09T23:24:02.497Z,4.40
2023-05-09T23:26:30.039Z,3.43
2023-05-09T23:28:58.907Z,3.78
2023-05-09T23:31:26.519Z,3.72
2023-05-09T23:33:54.114Z,4.10
2023-05-09T23:36:21.669Z,3.97
2023-05-09T23:38:49.237Z,3.70
2023-05-09T23:41:16.734Z,3.70
2023-05-09T23:43:44.291Z,3.90
2023-05-09T23:46:13.231Z,3.80
2023-05-09T23:48:40.800Z,3.80
2023-05-09T23:51:08.370Z,4.10
2023-05-09T23:53:35.901Z,3.90
2023-05-09T23:56:03.901Z,4.07
2023-05-09T23:58:31.458Z,4.30
